Decoded Metar for NZWN (WELLINGTON in NEW ZEALAND) (IATA:WLG) | Meteo·Mobile Aviation Weather
aviador You're here:

NZWN Decoded Metar

WELLINGTON in NEW ZEALAND
Report Time2019-02-17 05:30:00
UTC Time2019-02-17 06:02:56
Flight Rules vfr VFR
Wind360° at 20 kt
W.Decomp.*RWY 34: 20.0 kt HW 0.3 kt LCW
Visibility9999 m
Phenomena:N/A
Clouds:N/A
Expected CloudBase > 3,200 ft AGL from Temp-Dew spread
CeilingNone
Temp20°C (ISA +5)
Dew Point12°C (60% RH)
AAT13.4°C
QNH1011 hPa
Density Alt869 ft
Elevation23 ft
Report Wrong Elevation
Raw Report
NZWN 170530Z AUTO 36020KT 9999 NCD 20/12 Q1011 NOSIG=

Extra information for NZWN:More info

Metar Taf Metar & Taf Last 4 Metars F.Rules Stats Wind Profile Meteogram Temp Stats Airport Information Weather charts Add Link Nearby VenuesMetar ALERT Operation Metar Decoded Social comments